Time;durP1;ratioP1;P1;durP2;ratioP2;P2;SDS_P1;SDS_P2;PMS_P1;PMS_P2;Temp;Humidity;BMP_temperature;BMP_pressure;BME280_temperature;BME280_humidity;BME280_pressure;Samples;Min_cycle;Max_cycle;Signal;HPM_P1;HPM_P2
2021/03/05 00:00:14;;;;;;;94.23;44.27;;;1.80;99.90;;;;;;4172620;28;20371;-74
2021/03/05 00:02:15;;;;;;;93.03;42.40;;;1.80;99.90;;;;;;4173365;28;20282;-73
2021/03/05 00:04:16;;;;;;;97.03;45.53;;;1.80;99.90;;;;;;4173057;28;20266;-74
2021/03/05 00:06:17;;;;;;;83.47;40.83;;;1.80;99.90;;;;;;4172967;28;20275;-70
2021/03/05 00:08:19;;;;;;;90.80;41.77;;;1.90;99.90;;;;;;4173012;28;20250;-69
2021/03/05 00:10:29;;;;;;;86.20;39.27;;;1.80;99.90;;;;;;4172893;28;20630;-74
2021/03/05 00:12:30;;;;;;;85.43;38.40;;;1.90;99.90;;;;;;4172503;28;20374;-71
2021/03/05 00:14:32;;;;;;;72.80;34.70;;;1.90;99.90;;;;;;4173151;28;20138;-67
2021/03/05 00:16:33;;;;;;;94.60;39.43;;;2.00;99.90;;;;;;4172362;28;20262;-71
2021/03/05 00:18:34;;;;;;;90.53;41.07;;;1.90;99.90;;;;;;4172279;28;20324;-64
2021/03/05 00:20:39;;;;;;;89.40;40.87;;;1.90;99.90;;;;;;4172337;28;20258;-65
2021/03/05 00:22:41;;;;;;;79.90;38.07;;;1.90;99.90;;;;;;4171777;28;20356;-66
2021/03/05 00:24:42;;;;;;;82.00;36.90;;;2.00;99.90;;;;;;4172622;28;20339;-64
2021/03/05 00:26:43;;;;;;;76.03;35.57;;;2.00;99.90;;;;;;4172041;28;20278;-69
2021/03/05 00:28:44;;;;;;;81.20;36.60;;;2.00;99.90;;;;;;4172801;28;20303;-63
2021/03/05 00:30:46;;;;;;;76.83;35.43;;;2.00;99.90;;;;;;4173078;28;20265;-64
2021/03/05 00:32:47;;;;;;;66.73;33.10;;;2.00;99.90;;;;;;4172636;28;20289;-63
2021/03/05 00:34:48;;;;;;;64.70;30.00;;;2.00;99.90;;;;;;4172926;28;20805;-70
2021/03/05 00:36:50;;;;;;;68.97;33.03;;;2.00;99.90;;;;;;4172766;28;20273;-71
2021/03/05 00:38:51;;;;;;;66.80;30.17;;;1.90;99.90;;;;;;4172632;28;20772;-72
2021/03/05 00:40:53;;;;;;;72.90;32.53;;;1.90;99.90;;;;;;4172568;28;20266;-65
2021/03/05 00:42:54;;;;;;;65.37;30.47;;;1.90;99.90;;;;;;4172594;28;20307;-64
2021/03/05 00:44:55;;;;;;;68.17;31.13;;;1.90;99.90;;;;;;4172246;28;20665;-63
2021/03/05 00:46:56;;;;;;;65.43;29.70;;;1.90;99.90;;;;;;4171971;28;20813;-70
2021/03/05 00:48:58;;;;;;;63.93;28.90;;;1.90;99.90;;;;;;4172606;28;20292;-64
2021/03/05 00:50:59;;;;;;;60.60;29.20;;;1.80;99.90;;;;;;4172335;28;20285;-72
2021/03/05 00:53:00;;;;;;;68.17;30.60;;;1.80;99.90;;;;;;4170539;28;20317;-64
2021/03/05 00:55:03;;;;;;;78.97;30.87;;;1.70;99.90;;;;;;4172420;28;20368;-63
2021/03/05 00:57:04;;;;;;;69.50;32.77;;;1.70;99.90;;;;;;4171907;28;20254;-64
2021/03/05 00:59:06;;;;;;;80.47;35.43;;;1.60;99.90;;;;;;4170349;28;20324;-66
2021/03/05 01:01:07;;;;;;;82.13;36.83;;;1.60;99.90;;;;;;4172353;28;20307;-67
2021/03/05 01:03:08;;;;;;;79.70;36.00;;;1.50;99.90;;;;;;4172369;28;20835;-65
2021/03/05 01:05:10;;;;;;;80.23;36.63;;;1.50;99.90;;;;;;4172296;28;20660;-63
2021/03/05 01:07:14;;;;;;;81.80;35.87;;;1.50;99.90;;;;;;4172440;28;20774;-66
2021/03/05 01:09:15;;;;;;;77.83;34.63;;;1.50;99.90;;;;;;4170784;28;20290;-62
2021/03/05 01:11:17;;;;;;;77.23;35.40;;;1.40;99.90;;;;;;4172331;28;20274;-69
2021/03/05 01:13:18;;;;;;;86.07;36.37;;;1.40;99.90;;;;;;4171880;28;20278;-62
2021/03/05 01:15:19;;;;;;;84.07;35.20;;;1.40;99.90;;;;;;4172161;28;20283;-63
2021/03/05 01:17:20;;;;;;;77.50;35.07;;;1.40;99.90;;;;;;4171994;28;20262;-64
2021/03/05 01:19:25;;;;;;;75.67;35.57;;;1.30;99.90;;;;;;4172228;28;20286;-72
2021/03/05 01:21:26;;;;;;;77.50;35.93;;;1.40;99.90;;;;;;4172118;28;20813;-64
2021/03/05 01:23:27;;;;;;;74.40;34.03;;;1.40;99.90;;;;;;4171582;28;20340;-70
2021/03/05 01:25:31;;;;;;;69.07;31.67;;;1.30;99.90;;;;;;4172080;28;20270;-66
2021/03/05 01:27:32;;;;;;;64.80;31.53;;;1.40;99.90;;;;;;4171771;28;20336;-64
2021/03/05 01:29:33;;;;;;;67.07;30.07;;;1.40;99.90;;;;;;4171854;28;20332;-64
2021/03/05 01:31:35;;;;;;;64.60;29.60;;;1.40;99.90;;;;;;4171384;28;20827;-71
2021/03/05 01:33:36;;;;;;;68.83;31.60;;;1.40;99.90;;;;;;4171471;28;20320;-71
2021/03/05 01:35:37;;;;;;;76.90;32.30;;;1.40;99.90;;;;;;4172268;28;20335;-64
2021/03/05 01:37:39;;;;;;;69.60;30.53;;;1.50;99.90;;;;;;4172270;28;20262;-64
2021/03/05 01:39:40;;;;;;;71.67;32.93;;;1.50;99.90;;;;;;4171449;28;20293;-63
2021/03/05 01:41:41;;;;;;;68.93;32.00;;;1.50;99.90;;;;;;4171289;28;20274;-63
2021/03/05 01:43:42;;;;;;;61.60;31.50;;;1.50;99.90;;;;;;4171146;28;20281;-64
2021/03/05 01:45:45;;;;;;;59.87;28.30;;;1.60;99.90;;;;;;4171610;28;20270;-63
2021/03/05 01:47:48;;;;;;;69.57;31.70;;;1.60;99.90;;;;;;4170967;28;20340;-64
2021/03/05 01:49:50;;;;;;;73.40;30.67;;;1.60;99.90;;;;;;4171582;28;20262;-67
2021/03/05 01:51:51;;;;;;;69.57;32.30;;;1.60;99.90;;;;;;4171438;28;20270;-65
2021/03/05 01:53:52;;;;;;;69.13;32.63;;;1.60;99.90;;;;;;4172056;28;20266;-72
2021/03/05 01:55:54;;;;;;;65.97;29.63;;;1.50;99.90;;;;;;4172081;28;20816;-70
2021/03/05 01:57:55;;;;;;;63.73;29.27;;;1.50;99.90;;;;;;4172096;28;21093;-69
2021/03/05 01:59:56;;;;;;;64.53;30.80;;;1.50;99.90;;;;;;4171614;28;20361;-68
2021/03/05 02:02:06;;;;;;;68.10;32.47;;;1.50;99.90;;;;;;4171169;28;21090;-70
2021/03/05 02:04:12;;;;;;;65.53;31.40;;;1.60;99.90;;;;;;4172475;28;20286;-63
2021/03/05 02:06:14;;;;;;;70.40;31.83;;;1.50;99.90;;;;;;4172027;28;20351;-64
2021/03/05 02:08:15;;;;;;;68.77;31.67;;;1.50;99.90;;;;;;4154092;28;20267;-66
2021/03/05 02:10:17;;;;;;;66.07;31.87;;;1.40;99.90;;;;;;4171566;28;20788;-66
2021/03/05 02:12:18;;;;;;;79.87;34.37;;;1.40;99.90;;;;;;4171948;28;20351;-63
2021/03/05 02:14:19;;;;;;;75.43;34.03;;;1.30;99.90;;;;;;4171771;28;20846;-70
2021/03/05 02:16:40;;;;;;;67.40;32.83;;;1.20;99.90;;;;;;4170542;28;20266;-66
2021/03/05 02:18:52;;;;;;;;;;;1.20;99.90;;;;;;4172582;28;20335;-70
2021/03/05 02:21:09;;;;;;;78.53;33.33;;;1.10;99.90;;;;;;4174574;28;20681;-70
2021/03/05 02:23:39;;;;;;;72.90;35.00;;;1.10;99.90;;;;;;4172759;28;20328;-71
2021/03/05 02:26:12;;;;;;;79.40;33.50;;;1.20;99.90;;;;;;4173775;28;20332;-70
2021/03/05 02:28:22;;;;;;;75.30;34.03;;;1.20;99.90;;;;;;4174550;28;20688;-71
2021/03/05 02:31:01;;;;;;;71.35;33.13;;;1.20;99.90;;;;;;4174792;28;21230;-72
2021/03/05 02:33:13;;;;;;;79.47;33.83;;;1.30;99.90;;;;;;4173071;28;20029;-66
2021/03/05 02:35:16;;;;;;;75.00;33.07;;;1.30;99.90;;;;;;4174875;28;20316;-71
2021/03/05 02:37:21;;;;;;;76.57;33.93;;;1.30;99.90;;;;;;4174368;28;20803;-64
2021/03/05 02:39:44;;;;;;;65.93;31.40;;;1.40;99.90;;;;;;4174468;28;20312;-73
2021/03/05 02:41:52;;;;;;;64.63;30.83;;;1.30;99.90;;;;;;4174012;28;21131;-64
2021/03/05 02:43:56;;;;;;;68.97;30.83;;;1.20;99.90;;;;;;4174093;28;20258;-69
2021/03/05 02:46:05;;;;;;;69.63;31.43;;;1.10;99.90;;;;;;4174032;28;20266;-63
2021/03/05 02:48:11;;;;;;;62.53;29.97;;;1.00;99.90;;;;;;4174351;28;20273;-68
2021/03/05 02:50:17;;;;;;;65.97;29.07;;;1.00;99.90;;;;;;4174033;28;20258;-67
2021/03/05 02:52:21;;;;;;;64.97;29.03;;;1.00;99.90;;;;;;4173631;28;20748;-64
2021/03/05 02:54:25;;;;;;;63.70;29.73;;;0.90;99.90;;;;;;4174490;28;20266;-64
2021/03/05 02:56:28;;;;;;;64.00;30.40;;;0.90;99.90;;;;;;4173389;28;20336;-63
2021/03/05 02:58:30;;;;;;;69.87;30.43;;;0.90;99.90;;;;;;4173769;28;20351;-62
2021/03/05 03:00:32;;;;;;;70.80;32.27;;;0.90;99.90;;;;;;4173973;28;20297;-67
2021/03/05 03:02:35;;;;;;;77.57;31.50;;;0.90;99.90;;;;;;4173612;28;20266;-63
2021/03/05 03:04:41;;;;;;;66.97;29.93;;;0.90;99.90;;;;;;4173637;28;20819;-64
2021/03/05 03:06:44;;;;;;;66.13;30.63;;;0.90;99.90;;;;;;4174108;28;20274;-67
2021/03/05 03:08:47;;;;;;;61.80;30.80;;;0.90;99.90;;;;;;4174020;28;20761;-70
2021/03/05 03:10:49;;;;;;;67.13;31.10;;;1.00;99.90;;;;;;4173906;28;20619;-71
2021/03/05 03:12:55;;;;;;;66.83;31.00;;;1.00;99.90;;;;;;4173873;28;20304;-71
2021/03/05 03:14:56;;;;;;;80.50;31.60;;;1.00;99.90;;;;;;4173823;28;20976;-67
2021/03/05 03:16:58;;;;;;;65.33;31.10;;;1.00;99.90;;;;;;4173406;28;20819;-74
2021/03/05 03:19:00;;;;;;;68.17;31.47;;;1.00;99.90;;;;;;4173157;28;21138;-64
2021/03/05 03:21:02;;;;;;;67.87;31.57;;;1.00;99.90;;;;;;4173869;28;21255;-72
2021/03/05 03:23:07;;;;;;;65.47;31.57;;;0.90;99.90;;;;;;4173618;28;20420;-64
2021/03/05 03:25:11;;;;;;;82.87;35.17;;;1.00;99.90;;;;;;4173990;28;20324;-63
2021/03/05 03:27:13;;;;;;;69.23;30.90;;;1.00;99.90;;;;;;4173294;28;20769;-63
2021/03/05 03:29:14;;;;;;;76.63;31.97;;;1.00;99.90;;;;;;4173102;28;20689;-67
2021/03/05 03:31:17;;;;;;;71.17;31.07;;;1.00;99.90;;;;;;4171996;28;20701;-69
2021/03/05 03:33:19;;;;;;;68.33;32.17;;;1.10;99.90;;;;;;4173492;28;20316;-71
2021/03/05 03:35:20;;;;;;;65.63;30.73;;;1.10;99.90;;;;;;4173434;28;20270;-72
2021/03/05 03:37:23;;;;;;;62.73;29.47;;;1.10;99.90;;;;;;4173264;28;20336;-64
2021/03/05 03:39:24;;;;;;;67.70;31.03;;;1.10;99.90;;;;;;4155574;28;20274;-68
2021/03/05 03:41:26;;;;;;;71.40;30.93;;;1.10;99.90;;;;;;4172896;28;21018;-71
2021/03/05 03:43:27;;;;;;;70.90;31.33;;;1.20;99.90;;;;;;4173243;28;20262;-68
2021/03/05 03:45:30;;;;;;;68.23;30.87;;;1.20;99.90;;;;;;4173657;28;20309;-73
2021/03/05 03:47:32;;;;;;;65.23;31.10;;;1.10;99.90;;;;;;4154795;28;20464;-63
2021/03/05 03:49:43;;;;;;;78.33;34.00;;;1.10;99.90;;;;;;4173333;28;20634;-62
2021/03/05 03:51:51;;;;;;;70.87;32.07;;;1.20;99.90;;;;;;4173468;28;20270;-66
2021/03/05 03:53:54;;;;;;;63.80;30.33;;;1.20;99.90;;;;;;4173463;28;20270;-62
2021/03/05 03:55:57;;;;;;;80.70;32.83;;;1.20;99.90;;;;;;4173130;28;20262;-64
2021/03/05 03:58:00;;;;;;;92.13;32.97;;;1.20;99.90;;;;;;4173286;28;20278;-68
2021/03/05 04:00:03;;;;;;;76.23;35.73;;;1.10;99.90;;;;;;4173097;28;20290;-63
2021/03/05 04:02:07;;;;;;;78.57;34.40;;;1.00;99.90;;;;;;4173227;28;20343;-62
2021/03/05 04:04:10;;;;;;;77.93;35.63;;;1.00;99.90;;;;;;4173751;28;20266;-72
2021/03/05 04:06:12;;;;;;;79.23;35.43;;;0.90;99.90;;;;;;4167400;28;20336;-69
2021/03/05 04:08:14;;;;;;;89.20;36.93;;;0.90;99.90;;;;;;4189793;28;20257;-70
2021/03/05 04:10:16;;;;;;;80.87;35.23;;;0.90;99.90;;;;;;4185672;28;20761;-72
2021/03/05 04:12:17;;;;;;;83.47;37.43;;;1.00;99.90;;;;;;4154415;28;20341;-67
2021/03/05 04:14:20;;;;;;;72.70;33.20;;;1.00;99.90;;;;;;4172514;28;20315;-70
2021/03/05 04:16:21;;;;;;;85.37;34.30;;;1.10;99.90;;;;;;4172447;28;20250;-68
2021/03/05 04:18:30;;;;;;;81.53;36.47;;;1.10;99.90;;;;;;4172439;28;20301;-68
2021/03/05 04:20:36;;;;;;;83.13;34.90;;;1.10;99.90;;;;;;4172368;28;20289;-72
2021/03/05 04:22:38;;;;;;;80.97;36.70;;;1.10;99.90;;;;;;4172772;28;20274;-67
2021/03/05 04:24:39;;;;;;;81.67;37.43;;;1.10;99.90;;;;;;4172705;28;20316;-64
2021/03/05 04:26:40;;;;;;;84.27;37.90;;;1.00;99.90;;;;;;4172385;28;20347;-59
2021/03/05 04:28:42;;;;;;;78.67;39.00;;;1.00;99.90;;;;;;4172927;28;21209;-64
2021/03/05 04:30:43;;;;;;;86.60;37.93;;;1.00;99.90;;;;;;4171297;28;21219;-62
2021/03/05 04:32:45;;;;;;;83.07;36.43;;;0.90;99.90;;;;;;4172155;28;20328;-63
2021/03/05 04:34:46;;;;;;;81.40;40.07;;;0.90;99.90;;;;;;4172958;28;20324;-68
2021/03/05 04:36:47;;;;;;;84.50;40.43;;;0.90;99.90;;;;;;4172455;28;20266;-69
2021/03/05 04:38:49;;;;;;;84.73;39.23;;;0.80;99.90;;;;;;4172202;28;20270;-70
2021/03/05 04:40:50;;;;;;;88.83;39.97;;;0.80;99.90;;;;;;4172752;28;20356;-70
2021/03/05 04:42:51;;;;;;;86.53;39.00;;;0.80;99.90;;;;;;4171532;28;21193;-72
2021/03/05 04:44:52;;;;;;;96.37;40.73;;;0.70;99.90;;;;;;4172638;28;20758;-69
2021/03/05 04:46:54;;;;;;;88.43;41.03;;;0.70;99.90;;;;;;4172308;28;20339;-68
2021/03/05 04:48:55;;;;;;;84.13;39.73;;;0.70;99.90;;;;;;4172322;28;20599;-67
2021/03/05 04:50:57;;;;;;;88.20;40.87;;;0.80;99.90;;;;;;4172402;28;20274;-62
2021/03/05 04:52:58;;;;;;;96.20;39.33;;;0.80;99.90;;;;;;4171530;28;20320;-70
2021/03/05 04:54:59;;;;;;;95.17;41.67;;;0.70;99.90;;;;;;4172135;28;21062;-67
2021/03/05 04:57:00;;;;;;;103.33;43.60;;;0.80;99.90;;;;;;4171361;28;20278;-66
2021/03/05 04:59:05;;;;;;;102.97;43.27;;;0.80;99.90;;;;;;4171473;28;20282;-69
2021/03/05 05:01:06;;;;;;;97.00;43.00;;;0.80;99.90;;;;;;4171411;28;20689;-62
2021/03/05 05:03:07;;;;;;;96.13;43.43;;;0.80;99.90;;;;;;4171598;28;20277;-62
2021/03/05 05:05:10;;;;;;;110.47;46.50;;;0.80;99.90;;;;;;4172549;28;20281;-71
2021/03/05 05:07:11;;;;;;;101.90;43.87;;;0.80;99.90;;;;;;4172089;28;20274;-70
2021/03/05 05:09:13;;;;;;;108.17;44.77;;;0.80;99.90;;;;;;4171845;28;20278;-67
2021/03/05 05:11:14;;;;;;;105.60;46.73;;;0.80;99.90;;;;;;4171692;28;20316;-69
2021/03/05 05:13:15;;;;;;;110.93;44.50;;;0.80;99.90;;;;;;4171370;28;20933;-66
2021/03/05 05:15:17;;;;;;;108.80;47.23;;;0.80;99.90;;;;;;4153778;28;20278;-65
2021/03/05 05:17:18;;;;;;;105.63;44.83;;;0.80;99.90;;;;;;4153811;28;20283;-65
2021/03/05 05:19:19;;;;;;;97.57;44.77;;;0.90;99.90;;;;;;4171279;28;20669;-64
2021/03/05 05:21:20;;;;;;;99.40;45.37;;;0.90;99.90;;;;;;4171831;28;20348;-68
2021/03/05 05:23:22;;;;;;;95.07;41.60;;;0.90;99.90;;;;;;4153656;28;20279;-63
2021/03/05 05:25:23;;;;;;;102.37;43.23;;;1.00;99.90;;;;;;4171827;28;20265;-67
2021/03/05 05:27:24;;;;;;;99.33;45.77;;;1.00;99.90;;;;;;4169872;28;20340;-63
2021/03/05 05:29:27;;;;;;;85.47;41.97;;;1.10;99.90;;;;;;4171382;28;20630;-65
2021/03/05 05:31:28;;;;;;;100.17;44.43;;;1.20;99.90;;;;;;4156051;28;20317;-70
2021/03/05 05:33:29;;;;;;;89.53;41.20;;;1.20;99.90;;;;;;4153304;28;20279;-65
2021/03/05 05:35:30;;;;;;;94.40;43.00;;;1.30;99.90;;;;;;4171654;28;20332;-67
2021/03/05 05:37:31;;;;;;;100.40;42.47;;;1.30;99.90;;;;;;4152727;28;20794;-65
2021/03/05 05:39:33;;;;;;;93.80;40.70;;;1.30;99.90;;;;;;4171243;28;20327;-61
2021/03/05 05:41:38;;;;;;;91.20;42.00;;;1.30;99.90;;;;;;4170653;28;20290;-62
2021/03/05 05:43:39;;;;;;;92.30;42.17;;;1.30;99.90;;;;;;4170405;28;20337;-65
2021/03/05 05:45:44;;;;;;;91.00;42.67;;;1.30;99.90;;;;;;4169519;28;20274;-65
2021/03/05 05:47:46;;;;;;;87.80;39.13;;;1.30;99.90;;;;;;4171306;28;20339;-66
2021/03/05 05:49:48;;;;;;;85.40;40.47;;;1.30;99.90;;;;;;4171116;28;20657;-74
2021/03/05 05:51:50;;;;;;;87.73;37.93;;;1.30;99.90;;;;;;4170476;28;20335;-67
2021/03/05 05:53:52;;;;;;;86.53;38.90;;;1.30;99.90;;;;;;4170954;28;20262;-65
2021/03/05 05:55:53;;;;;;;72.80;36.50;;;1.30;99.90;;;;;;4172724;28;20266;-69
2021/03/05 05:57:56;;;;;;;84.20;39.23;;;1.40;99.90;;;;;;4174396;28;20323;-71
2021/03/05 05:59:58;;;;;;;83.60;39.33;;;1.30;99.90;;;;;;4174285;28;20266;-59
2021/03/05 06:01:59;;;;;;;93.27;39.77;;;1.30;99.90;;;;;;4172868;28;20358;-68
2021/03/05 06:04:01;;;;;;;102.27;43.40;;;1.30;99.90;;;;;;4173898;28;20308;-68
2021/03/05 06:06:03;;;;;;;103.90;41.87;;;1.30;99.90;;;;;;4173931;28;20343;-64
2021/03/05 06:08:06;;;;;;;100.27;43.13;;;1.30;99.90;;;;;;4174326;28;20278;-65
2021/03/05 06:10:08;;;;;;;85.30;40.17;;;1.40;99.90;;;;;;4174319;28;20262;-64
2021/03/05 06:12:12;;;;;;;92.97;40.83;;;1.40;99.90;;;;;;4174016;28;20289;-72
2021/03/05 06:14:13;;;;;;;99.30;41.63;;;1.40;99.90;;;;;;4174410;28;20278;-64
2021/03/05 06:16:19;;;;;;;86.97;38.33;;;1.40;99.90;;;;;;4173923;28;20332;-64
2021/03/05 06:18:30;;;;;;;80.93;36.60;;;1.40;99.90;;;;;;4174159;28;20270;-64
2021/03/05 06:20:44;;;;;;;86.70;39.03;;;1.50;99.90;;;;;;4173806;28;20355;-63
2021/03/05 06:23:05;;;;;;;79.83;36.33;;;1.50;99.90;;;;;;4174509;28;20254;-64
2021/03/05 06:25:09;;;;;;;94.45;35.92;;;1.50;99.90;;;;;;4174607;28;20278;-64
2021/03/05 06:27:11;;;;;;;74.07;32.70;;;1.50;99.90;;;;;;4173710;28;20037;-64
2021/03/05 06:29:12;;;;;;;74.30;34.63;;;1.50;99.90;;;;;;4174187;28;20307;-63
2021/03/05 06:31:14;;;;;;;76.13;35.00;;;1.50;99.90;;;;;;4173701;28;20270;-64
2021/03/05 06:33:31;;;;;;;80.13;37.40;;;1.50;99.90;;;;;;4173354;28;20265;-64
2021/03/05 06:35:32;;;;;;;74.43;35.43;;;1.60;99.90;;;;;;4148687;28;20339;-65
2021/03/05 06:37:45;;;;;;;81.67;34.73;;;1.60;99.90;;;;;;4166122;28;20433;-67
2021/03/05 06:39:57;;;;;;;83.93;35.63;;;1.80;99.90;;;;;;4168672;28;20673;-69
2021/03/05 06:42:16;;;;;;;93.73;38.87;;;1.90;99.90;;;;;;4159263;28;20309;-67
2021/03/05 06:44:23;;;;;;;93.63;40.73;;;2.00;99.90;;;;;;4165365;28;20352;-70
2021/03/05 06:46:29;;;;;;;106.60;42.90;;;2.10;99.90;;;;;;4171119;28;20323;-66
2021/03/05 06:48:31;;;;;;;105.97;43.33;;;2.20;99.90;;;;;;4165176;28;20313;-65
2021/03/05 06:50:34;;;;;;;101.63;42.20;;;2.30;99.90;;;;;;4174550;28;20323;-71
2021/03/05 06:52:36;;;;;;;113.63;44.50;;;2.40;99.90;;;;;;4174564;28;20320;-66
2021/03/05 06:54:47;;;;;;;98.37;42.40;;;2.50;99.90;;;;;;4174442;28;20726;-69
2021/03/05 06:56:48;;;;;;;107.45;47.75;;;2.50;99.90;;;;;;4174045;28;20657;-59
2021/03/05 06:59:12;;;;;;;100.30;43.23;;;2.60;99.90;;;;;;4173696;28;20087;-64
2021/03/05 07:01:13;;;;;;;104.97;44.50;;;2.60;99.90;;;;;;4174268;28;20367;-68
2021/03/05 07:03:22;;;;;;;104.37;45.93;;;2.70;99.90;;;;;;4173834;28;20659;-61
2021/03/05 07:05:54;;;;;;;106.67;48.00;;;2.90;99.90;;;;;;4174720;28;20324;-71
2021/03/05 07:07:56;;;;;;;105.07;46.70;;;3.00;99.90;;;;;;4173590;28;20416;-69
2021/03/05 07:09:57;;;;;;;113.40;48.77;;;3.10;99.90;;;;;;4173359;28;20278;-64
2021/03/05 07:11:59;;;;;;;106.07;45.70;;;3.20;99.90;;;;;;4173825;28;20303;-66
2021/03/05 07:14:02;;;;;;;111.93;46.37;;;3.40;99.90;;;;;;4174028;28;20270;-66
2021/03/05 07:16:03;;;;;;;106.33;47.17;;;3.50;99.90;;;;;;4174079;28;20653;-64
2021/03/05 07:18:05;;;;;;;103.17;43.13;;;3.60;99.90;;;;;;4173780;28;20274;-65
2021/03/05 07:20:07;;;;;;;101.60;43.37;;;3.80;99.90;;;;;;4178064;28;21103;-68
2021/03/05 07:22:09;;;;;;;93.07;42.13;;;3.80;99.90;;;;;;4175310;28;20501;-61
2021/03/05 07:24:12;;;;;;;85.03;38.80;;;3.90;99.90;;;;;;4155244;28;20279;-70
2021/03/05 07:26:14;;;;;;;83.30;39.07;;;3.80;99.90;;;;;;4172698;28;20265;-64
2021/03/05 07:28:18;;;;;;;91.47;41.47;;;3.80;99.90;;;;;;4162523;28;20827;-61
2021/03/05 07:30:22;;;;;;;82.70;39.47;;;3.80;99.90;;;;;;4168279;28;20266;-59
2021/03/05 07:32:50;;;;;;;89.07;41.27;;;3.90;99.90;;;;;;4172269;28;20331;-62
2021/03/05 07:34:58;;;;;;;87.57;40.13;;;4.10;99.90;;;;;;4170510;28;20749;-67
2021/03/05 07:37:07;;;;;;;92.53;43.77;;;4.30;99.90;;;;;;4172403;28;20262;-69
2021/03/05 07:39:08;;;;;;;89.17;42.93;;;4.30;99.90;;;;;;4173161;28;20266;-64
2021/03/05 07:41:10;;;;;;;96.00;44.43;;;4.30;99.90;;;;;;4172973;28;20321;-69
2021/03/05 07:43:12;;;;;;;111.47;46.57;;;4.20;99.90;;;;;;4173494;28;20700;-67
2021/03/05 07:45:14;;;;;;;113.00;51.27;;;4.10;99.90;;;;;;4173591;28;20273;-66
2021/03/05 07:47:16;;;;;;;143.93;67.03;;;4.10;99.90;;;;;;4173092;28;20266;-70
2021/03/05 07:49:32;;;;;;;162.40;71.97;;;4.10;99.90;;;;;;4172943;28;20342;-69
2021/03/05 07:51:34;;;;;;;111.10;53.50;;;4.10;99.90;;;;;;4173241;28;20705;-67
2021/03/05 07:53:51;;;;;;;119.93;57.60;;;4.10;99.90;;;;;;4171398;28;20754;-66
2021/03/05 07:55:52;;;;;;;103.27;46.73;;;4.20;99.90;;;;;;4173032;28;20296;-71
2021/03/05 07:57:53;;;;;;;98.23;46.97;;;4.20;99.90;;;;;;4172402;28;20286;-69
2021/03/05 07:59:57;;;;;;;110.67;49.07;;;4.20;99.90;;;;;;4171912;28;20289;-64
2021/03/05 08:01:59;;;;;;;109.53;48.23;;;4.20;99.90;;;;;;4172950;28;20298;-70
2021/03/05 08:04:00;;;;;;;91.87;45.60;;;4.20;99.90;;;;;;4173522;28;20336;-69
2021/03/05 08:06:01;;;;;;;96.07;45.23;;;4.20;99.90;;;;;;4173536;28;21184;-70
2021/03/05 08:08:30;;;;;;;89.53;44.97;;;4.30;99.90;;;;;;4173149;28;20269;-71
2021/03/05 08:10:35;;;;;;;88.67;42.73;;;4.30;99.90;;;;;;4169531;28;20297;-64
2021/03/05 08:12:42;;;;;;;85.57;42.60;;;4.30;99.90;;;;;;4173074;28;20266;-68
2021/03/05 08:14:43;;;;;;;85.93;42.77;;;4.30;99.90;;;;;;4172737;28;20759;-71
2021/03/05 08:16:46;;;;;;;88.20;42.00;;;4.30;99.90;;;;;;4172486;28;20262;-72
2021/03/05 08:18:47;;;;;;;85.37;41.70;;;4.40;99.90;;;;;;4172954;28;20286;-66
2021/03/05 08:20:50;;;;;;;89.37;43.00;;;4.50;99.90;;;;;;4172748;28;20412;-64
2021/03/05 08:23:01;;;;;;;88.30;44.97;;;4.50;99.90;;;;;;4172610;28;20357;-60
2021/03/05 08:25:22;;;;;;;95.50;48.40;;;4.70;99.90;;;;;;4170936;28;20352;-67
2021/03/05 08:27:36;;;;;;;97.83;46.90;;;4.70;99.90;;;;;;4173044;28;20278;-66
2021/03/05 08:30:17;;;;;;;94.13;46.47;;;4.80;99.90;;;;;;4172471;28;20748;-64
2021/03/05 08:32:33;;;;;;;;;;;4.90;99.90;;;;;;4089434;29;20286;-61
2021/03/05 08:34:46;;;;;;;85.10;39.30;;;4.90;99.90;;;;;;4091041;28;20001;-66
2021/03/05 08:36:47;;;;;;;90.67;39.60;;;4.90;99.90;;;;;;4103255;28;20337;-62
2021/03/05 08:38:48;;;;;;;86.97;40.33;;;5.00;99.90;;;;;;4171848;28;20274;-70
2021/03/05 08:40:52;;;;;;;88.73;42.70;;;5.10;99.90;;;;;;4172233;28;20343;-68
2021/03/05 08:43:09;;;;;;;80.10;40.27;;;5.20;99.90;;;;;;4172391;28;20734;-71
2021/03/05 08:45:26;;;;;;;75.70;37.87;;;5.30;99.90;;;;;;4165036;28;20355;-70
2021/03/05 08:47:28;;;;;;;77.23;40.67;;;5.40;99.90;;;;;;4171415;28;20677;-71
2021/03/05 08:49:31;;;;;;;90.13;38.97;;;5.40;99.90;;;;;;4171340;28;20678;-72
2021/03/05 08:51:35;;;;;;;77.47;38.70;;;5.40;99.90;;;;;;4171994;28;20845;-72
2021/03/05 08:53:46;;;;;;;84.97;41.17;;;5.40;99.90;;;;;;4171149;28;20665;-70
2021/03/05 08:55:47;;;;;;;;;;;5.50;99.90;;;;;;4171951;28;20320;-70
2021/03/05 08:57:53;;;;;;;83.00;38.97;;;5.50;99.90;;;;;;4172433;28;19960;-59
2021/03/05 08:59:55;;;;;;;87.10;41.50;;;5.60;99.90;;;;;;4167784;28;20119;-62
2021/03/05 09:01:56;;;;;;;76.40;40.40;;;5.70;99.90;;;;;;4169638;28;20371;-67
2021/03/05 09:04:20;;;;;;;85.60;42.27;;;5.70;99.90;;;;;;4172074;28;20305;-67
2021/03/05 09:06:21;;;;;;;78.47;41.07;;;5.90;99.90;;;;;;4172075;28;20270;-64
2021/03/05 09:08:24;;;;;;;81.00;40.60;;;6.00;99.90;;;;;;4172506;28;20324;-72
2021/03/05 09:10:52;;;;;;;87.90;42.90;;;6.10;99.90;;;;;;4172012;28;20290;-60
2021/03/05 09:13:02;;;;;;;81.47;40.87;;;6.20;99.90;;;;;;4155777;28;20275;-61
2021/03/05 09:15:04;;;;;;;82.07;40.20;;;6.30;99.90;;;;;;4167539;28;20278;-71
2021/03/05 09:17:06;;;;;;;84.97;40.67;;;6.40;99.90;;;;;;4174266;28;20261;-71
2021/03/05 09:19:08;;;;;;;82.63;42.17;;;6.50;99.90;;;;;;4171976;28;20720;-65
2021/03/05 09:21:10;;;;;;;92.13;44.23;;;6.60;99.90;;;;;;4171919;28;20294;-71
2021/03/05 09:23:19;;;;;;;94.17;44.50;;;6.70;99.90;;;;;;4171803;28;20258;-69
2021/03/05 09:25:20;;;;;;;85.37;43.53;;;6.80;99.90;;;;;;4172079;28;20336;-70
2021/03/05 09:27:35;;;;;;;95.83;44.23;;;6.90;99.90;;;;;;4172163;28;20270;-72
2021/03/05 09:29:36;;;;;;;85.17;44.67;;;7.00;99.90;;;;;;4173917;28;20258;-72
2021/03/05 09:31:37;;;;;;;86.37;44.40;;;7.10;99.90;;;;;;4174530;28;20278;-68
2021/03/05 09:33:40;;;;;;;87.43;42.30;;;7.20;99.90;;;;;;4174597;28;20033;-72
2021/03/05 09:35:42;;;;;;;89.60;44.40;;;7.40;99.90;;;;;;4175723;28;20252;-65
2021/03/05 09:37:43;;;;;;;88.13;42.60;;;7.30;99.90;;;;;;4175105;28;20020;-68
2021/03/05 09:39:46;;;;;;;83.37;41.77;;;7.30;99.90;;;;;;4175172;28;20029;-61
2021/03/05 09:41:48;;;;;;;135.23;65.80;;;7.30;99.90;;;;;;4157156;28;20080;-62
2021/03/05 09:44:06;;;;;;;80.50;40.83;;;7.40;99.90;;;;;;4173523;28;20472;-61
2021/03/05 09:46:21;;;;;;;81.13;38.13;;;7.40;99.90;;;;;;4158561;28;20752;-59
2021/03/05 09:48:28;;;;;;;68.70;37.63;;;7.50;99.90;;;;;;4156899;28;20057;-66
2021/03/05 09:50:30;;;;;;;75.10;38.40;;;7.50;99.90;;;;;;4174975;28;20343;-66
2021/03/05 09:52:31;;;;;;;77.47;39.30;;;7.60;99.90;;;;;;4175123;28;20041;-66
2021/03/05 09:54:40;;;;;;;75.13;39.57;;;7.80;99.90;;;;;;4175381;28;20033;-66
2021/03/05 09:56:45;;;;;;;78.60;39.90;;;7.90;99.90;;;;;;4174924;28;20099;-62
2021/03/05 09:59:02;;;;;;;85.50;42.70;;;7.90;99.90;;;;;;4174475;28;20122;-70
2021/03/05 10:01:05;;;;;;;80.00;39.50;;;8.10;99.90;;;;;;4174244;28;20063;-67
2021/03/05 10:03:14;;;;;;;76.87;37.50;;;8.30;99.90;;;;;;4174609;28;20037;-65
2021/03/05 10:05:24;;;;;;;70.77;36.80;;;8.40;99.90;;;;;;4170352;22;20061;-66
2021/03/05 10:07:25;;;;;;;76.93;36.87;;;8.60;99.90;;;;;;4153888;28;20034;-62
2021/03/05 10:09:26;;;;;;;69.00;37.93;;;8.80;99.90;;;;;;4156313;28;20837;-68
2021/03/05 10:11:35;;;;;;;69.90;39.20;;;8.90;99.90;;;;;;4158237;28;20041;-61
2021/03/05 10:13:45;;;;;;;73.60;37.80;;;9.00;99.90;;;;;;4158887;28;20046;-60
2021/03/05 10:15:50;;;;;;;84.17;38.13;;;9.10;99.90;;;;;;4158506;28;20033;-60
2021/03/05 10:17:51;;;;;;;67.67;35.03;;;9.10;99.90;;;;;;4157928;28;20465;-67
2021/03/05 10:19:52;;;;;;;66.37;35.03;;;9.30;99.90;;;;;;4142453;28;20045;-59
2021/03/05 10:21:55;;;;;;;67.33;34.90;;;9.40;99.90;;;;;;4155912;28;20135;-65
2021/03/05 10:23:57;;;;;;;75.43;34.13;;;9.50;99.90;;;;;;4133677;28;20039;-61
2021/03/05 10:25:59;;;;;;;80.73;34.00;;;9.70;99.90;;;;;;4142521;28;20053;-62
2021/03/05 10:28:00;;;;;;;69.27;35.47;;;9.80;99.90;;;;;;4139487;28;20092;-61
2021/03/05 10:30:07;;;;;;;62.40;33.27;;;10.00;99.90;;;;;;4157989;28;20079;-63
2021/03/05 10:32:17;;;;;;;61.33;32.37;;;10.10;99.90;;;;;;4159977;28;20071;-60
2021/03/05 10:34:29;;;;;;;66.85;30.70;;;10.30;99.90;;;;;;4158380;28;20091;-72
2021/03/05 10:36:30;;;;;;;66.47;32.57;;;10.40;99.90;;;;;;4159877;28;20045;-72
2021/03/05 10:38:33;;;;;;;55.03;28.70;;;10.60;99.90;;;;;;4158905;28;20089;-69